sensor_id;sensor_type;location;lat;lon;timestamp;P1;durP1;ratioP1;P2;durP2;ratioP2
48993;SDS011;34804;49.214;12.276;2023-09-07T00:01:34;7.93;;;5.30;;
48993;SDS011;34804;49.214;12.276;2023-09-07T00:04:03;9.48;;;5.85;;
48993;SDS011;34804;49.214;12.276;2023-09-07T00:06:30;10.00;;;6.25;;
48993;SDS011;34804;49.214;12.276;2023-09-07T00:08:57;8.85;;;4.88;;
48993;SDS011;34804;49.214;12.276;2023-09-07T00:11:24;8.20;;;4.63;;
48993;SDS011;34804;49.214;12.276;2023-09-07T00:13:50;8.73;;;5.03;;
48993;SDS011;34804;49.214;12.276;2023-09-07T00:16:17;10.02;;;5.43;;
48993;SDS011;34804;49.214;12.276;2023-09-07T00:18:44;8.18;;;5.18;;
48993;SDS011;34804;49.214;12.276;2023-09-07T00:21:11;8.77;;;4.93;;
48993;SDS011;34804;49.214;12.276;2023-09-07T00:23:39;8.75;;;4.80;;
48993;SDS011;34804;49.214;12.276;2023-09-07T00:26:06;9.40;;;5.47;;
48993;SDS011;34804;49.214;12.276;2023-09-07T00:28:33;10.30;;;5.55;;
48993;SDS011;34804;49.214;12.276;2023-09-07T00:31:01;10.57;;;6.30;;
48993;SDS011;34804;49.214;12.276;2023-09-07T00:33:28;7.78;;;5.47;;
48993;SDS011;34804;49.214;12.276;2023-09-07T00:35:55;10.60;;;5.68;;
48993;SDS011;34804;49.214;12.276;2023-09-07T00:38:21;8.23;;;5.70;;
48993;SDS011;34804;49.214;12.276;2023-09-07T00:40:48;8.30;;;5.85;;
48993;SDS011;34804;49.214;12.276;2023-09-07T00:43:15;10.98;;;5.53;;
48993;SDS011;34804;49.214;12.276;2023-09-07T00:45:42;10.18;;;5.88;;
48993;SDS011;34804;49.214;12.276;2023-09-07T00:48:09;10.55;;;6.18;;
48993;SDS011;34804;49.214;12.276;2023-09-07T00:50:40;8.57;;;5.50;;
48993;SDS011;34804;49.214;12.276;2023-09-07T00:53:07;8.13;;;5.47;;
48993;SDS011;34804;49.214;12.276;2023-09-07T00:55:34;11.52;;;5.30;;
48993;SDS011;34804;49.214;12.276;2023-09-07T00:58:03;8.85;;;5.13;;
48993;SDS011;34804;49.214;12.276;2023-09-07T01:00:33;9.07;;;5.68;;
48993;SDS011;34804;49.214;12.276;2023-09-07T01:03:00;8.32;;;5.00;;
48993;SDS011;34804;49.214;12.276;2023-09-07T01:05:35;8.05;;;4.82;;
48993;SDS011;34804;49.214;12.276;2023-09-07T01:08:15;7.22;;;4.60;;
48993;SDS011;34804;49.214;12.276;2023-09-07T01:10:50;6.68;;;4.57;;
48993;SDS011;34804;49.214;12.276;2023-09-07T01:13:18;7.35;;;4.75;;
48993;SDS011;34804;49.214;12.276;2023-09-07T01:15:45;10.60;;;5.53;;
48993;SDS011;34804;49.214;12.276;2023-09-07T01:18:13;7.97;;;5.25;;
48993;SDS011;34804;49.214;12.276;2023-09-07T01:20:46;8.75;;;5.38;;
48993;SDS011;34804;49.214;12.276;2023-09-07T01:23:15;9.38;;;5.18;;
48993;SDS011;34804;49.214;12.276;2023-09-07T01:25:42;10.93;;;6.70;;
48993;SDS011;34804;49.214;12.276;2023-09-07T01:28:09;12.15;;;6.90;;
48993;SDS011;34804;49.214;12.276;2023-09-07T01:30:36;8.20;;;4.93;;
48993;SDS011;34804;49.214;12.276;2023-09-07T01:33:05;7.20;;;4.22;;
48993;SDS011;34804;49.214;12.276;2023-09-07T01:35:32;8.15;;;4.32;;
48993;SDS011;34804;49.214;12.276;2023-09-07T01:38:00;7.82;;;5.25;;
48993;SDS011;34804;49.214;12.276;2023-09-07T01:40:28;8.80;;;5.00;;
48993;SDS011;34804;49.214;12.276;2023-09-07T01:42:55;9.15;;;5.65;;
48993;SDS011;34804;49.214;12.276;2023-09-07T01:45:22;8.30;;;5.80;;
48993;SDS011;34804;49.214;12.276;2023-09-07T01:47:50;9.95;;;5.65;;
48993;SDS011;34804;49.214;12.276;2023-09-07T01:50:18;12.27;;;5.88;;
48993;SDS011;34804;49.214;12.276;2023-09-07T01:52:46;11.18;;;6.20;;
48993;SDS011;34804;49.214;12.276;2023-09-07T01:55:14;10.68;;;6.20;;
48993;SDS011;34804;49.214;12.276;2023-09-07T01:57:41;9.15;;;5.32;;
48993;SDS011;34804;49.214;12.276;2023-09-07T02:00:08;12.23;;;5.32;;
48993;SDS011;34804;49.214;12.276;2023-09-07T02:02:36;9.20;;;5.60;;
48993;SDS011;34804;49.214;12.276;2023-09-07T02:05:03;8.55;;;5.20;;
48993;SDS011;34804;49.214;12.276;2023-09-07T02:07:30;8.98;;;5.13;;
48993;SDS011;34804;49.214;12.276;2023-09-07T02:09:57;7.57;;;4.82;;
48993;SDS011;34804;49.214;12.276;2023-09-07T02:12:24;10.85;;;5.50;;
48993;SDS011;34804;49.214;12.276;2023-09-07T02:14:51;10.98;;;4.97;;
48993;SDS011;34804;49.214;12.276;2023-09-07T02:17:18;8.02;;;4.85;;
48993;SDS011;34804;49.214;12.276;2023-09-07T02:19:45;8.43;;;5.25;;
48993;SDS011;34804;49.214;12.276;2023-09-07T02:22:11;10.65;;;5.63;;
48993;SDS011;34804;49.214;12.276;2023-09-07T02:24:38;9.48;;;5.53;;
48993;SDS011;34804;49.214;12.276;2023-09-07T02:27:05;9.07;;;5.85;;
48993;SDS011;34804;49.214;12.276;2023-09-07T02:29:32;9.38;;;5.72;;
48993;SDS011;34804;49.214;12.276;2023-09-07T02:31:59;11.43;;;5.47;;
48993;SDS011;34804;49.214;12.276;2023-09-07T02:34:26;9.20;;;5.80;;
48993;SDS011;34804;49.214;12.276;2023-09-07T02:36:52;7.75;;;5.30;;
48993;SDS011;34804;49.214;12.276;2023-09-07T02:39:19;7.88;;;5.13;;
48993;SDS011;34804;49.214;12.276;2023-09-07T02:41:46;8.82;;;5.18;;
48993;SDS011;34804;49.214;12.276;2023-09-07T02:44:13;11.38;;;5.70;;
48993;SDS011;34804;49.214;12.276;2023-09-07T02:46:40;9.45;;;5.00;;
48993;SDS011;34804;49.214;12.276;2023-09-07T02:49:07;7.45;;;5.03;;
48993;SDS011;34804;49.214;12.276;2023-09-07T02:51:33;9.30;;;4.85;;
48993;SDS011;34804;49.214;12.276;2023-09-07T02:54:01;7.85;;;4.50;;
48993;SDS011;34804;49.214;12.276;2023-09-07T02:56:28;10.18;;;5.38;;
48993;SDS011;34804;49.214;12.276;2023-09-07T02:58:55;9.63;;;5.55;;
48993;SDS011;34804;49.214;12.276;2023-09-07T03:01:23;7.25;;;4.97;;
48993;SDS011;34804;49.214;12.276;2023-09-07T03:03:50;7.78;;;4.60;;
48993;SDS011;34804;49.214;12.276;2023-09-07T03:06:17;7.82;;;4.32;;
48993;SDS011;34804;49.214;12.276;2023-09-07T03:08:44;9.68;;;5.30;;
48993;SDS011;34804;49.214;12.276;2023-09-07T03:11:12;8.32;;;5.00;;
48993;SDS011;34804;49.214;12.276;2023-09-07T03:13:39;8.27;;;5.32;;
48993;SDS011;34804;49.214;12.276;2023-09-07T03:16:05;9.82;;;5.88;;
48993;SDS011;34804;49.214;12.276;2023-09-07T03:18:33;9.27;;;6.13;;
48993;SDS011;34804;49.214;12.276;2023-09-07T03:21:00;10.68;;;5.50;;
48993;SDS011;34804;49.214;12.276;2023-09-07T03:23:28;8.02;;;5.20;;
48993;SDS011;34804;49.214;12.276;2023-09-07T03:25:57;9.20;;;5.35;;
48993;SDS011;34804;49.214;12.276;2023-09-07T03:28:25;8.60;;;5.95;;
48993;SDS011;34804;49.214;12.276;2023-09-07T03:30:53;7.68;;;5.57;;
48993;SDS011;34804;49.214;12.276;2023-09-07T03:33:20;9.20;;;5.43;;
48993;SDS011;34804;49.214;12.276;2023-09-07T03:35:47;10.07;;;5.95;;
48993;SDS011;34804;49.214;12.276;2023-09-07T03:38:14;7.70;;;5.07;;
48993;SDS011;34804;49.214;12.276;2023-09-07T03:40:41;8.88;;;4.97;;
48993;SDS011;34804;49.214;12.276;2023-09-07T03:43:08;7.93;;;5.28;;
48993;SDS011;34804;49.214;12.276;2023-09-07T03:45:35;7.35;;;4.85;;
48993;SDS011;34804;49.214;12.276;2023-09-07T03:48:02;11.15;;;5.50;;
48993;SDS011;34804;49.214;12.276;2023-09-07T03:50:29;12.23;;;5.10;;
48993;SDS011;34804;49.214;12.276;2023-09-07T03:52:56;9.98;;;5.45;;
48993;SDS011;34804;49.214;12.276;2023-09-07T03:55:23;9.23;;;5.50;;
48993;SDS011;34804;49.214;12.276;2023-09-07T03:57:50;10.05;;;5.45;;
48993;SDS011;34804;49.214;12.276;2023-09-07T04:00:17;10.93;;;5.45;;
48993;SDS011;34804;49.214;12.276;2023-09-07T04:02:45;10.75;;;5.38;;
48993;SDS011;34804;49.214;12.276;2023-09-07T04:05:12;11.18;;;5.93;;
48993;SDS011;34804;49.214;12.276;2023-09-07T04:07:38;8.07;;;5.20;;
48993;SDS011;34804;49.214;12.276;2023-09-07T04:10:05;9.43;;;5.78;;
48993;SDS011;34804;49.214;12.276;2023-09-07T04:12:32;11.07;;;5.80;;
48993;SDS011;34804;49.214;12.276;2023-09-07T04:15:01;9.05;;;5.63;;
48993;SDS011;34804;49.214;12.276;2023-09-07T04:17:29;8.95;;;5.85;;
48993;SDS011;34804;49.214;12.276;2023-09-07T04:19:56;11.23;;;5.32;;
48993;SDS011;34804;49.214;12.276;2023-09-07T04:22:23;9.10;;;5.38;;
48993;SDS011;34804;49.214;12.276;2023-09-07T04:24:50;8.93;;;5.55;;
48993;SDS011;34804;49.214;12.276;2023-09-07T04:27:17;9.75;;;5.78;;
48993;SDS011;34804;49.214;12.276;2023-09-07T04:29:43;10.90;;;5.70;;
48993;SDS011;34804;49.214;12.276;2023-09-07T04:32:10;11.52;;;6.20;;
48993;SDS011;34804;49.214;12.276;2023-09-07T04:34:37;9.68;;;5.20;;
48993;SDS011;34804;49.214;12.276;2023-09-07T04:37:04;10.00;;;5.47;;
48993;SDS011;34804;49.214;12.276;2023-09-07T04:39:31;11.05;;;5.75;;
48993;SDS011;34804;49.214;12.276;2023-09-07T04:41:57;11.13;;;5.45;;
48993;SDS011;34804;49.214;12.276;2023-09-07T04:44:25;11.38;;;5.72;;
48993;SDS011;34804;49.214;12.276;2023-09-07T04:46:57;10.93;;;5.85;;
48993;SDS011;34804;49.214;12.276;2023-09-07T04:49:24;10.15;;;5.88;;
48993;SDS011;34804;49.214;12.276;2023-09-07T04:51:52;13.50;;;6.10;;
48993;SDS011;34804;49.214;12.276;2023-09-07T04:54:20;8.65;;;5.53;;
48993;SDS011;34804;49.214;12.276;2023-09-07T04:56:47;10.57;;;5.20;;
48993;SDS011;34804;49.214;12.276;2023-09-07T04:59:14;12.30;;;5.55;;
48993;SDS011;34804;49.214;12.276;2023-09-07T05:01:41;9.90;;;6.10;;
48993;SDS011;34804;49.214;12.276;2023-09-07T05:04:08;8.85;;;5.25;;
48993;SDS011;34804;49.214;12.276;2023-09-07T05:06:35;8.75;;;5.00;;
48993;SDS011;34804;49.214;12.276;2023-09-07T05:09:03;10.60;;;5.50;;
48993;SDS011;34804;49.214;12.276;2023-09-07T05:11:30;7.57;;;5.22;;
48993;SDS011;34804;49.214;12.276;2023-09-07T05:14:01;11.48;;;5.70;;
48993;SDS011;34804;49.214;12.276;2023-09-07T05:16:28;11.68;;;5.68;;
48993;SDS011;34804;49.214;12.276;2023-09-07T05:18:55;10.95;;;5.75;;
48993;SDS011;34804;49.214;12.276;2023-09-07T05:21:22;10.82;;;5.38;;
48993;SDS011;34804;49.214;12.276;2023-09-07T05:23:49;10.43;;;5.65;;
48993;SDS011;34804;49.214;12.276;2023-09-07T05:26:20;8.20;;;5.93;;
48993;SDS011;34804;49.214;12.276;2023-09-07T05:28:48;11.13;;;6.37;;
48993;SDS011;34804;49.214;12.276;2023-09-07T05:31:15;9.05;;;5.68;;
48993;SDS011;34804;49.214;12.276;2023-09-07T05:33:42;7.78;;;5.65;;
48993;SDS011;34804;49.214;12.276;2023-09-07T05:36:09;10.73;;;5.97;;
48993;SDS011;34804;49.214;12.276;2023-09-07T05:38:36;13.02;;;5.97;;
48993;SDS011;34804;49.214;12.276;2023-09-07T05:41:04;13.52;;;6.43;;
48993;SDS011;34804;49.214;12.276;2023-09-07T05:43:31;10.73;;;6.15;;
48993;SDS011;34804;49.214;12.276;2023-09-07T05:45:58;11.82;;;6.47;;
48993;SDS011;34804;49.214;12.276;2023-09-07T05:48:25;13.35;;;6.95;;
48993;SDS011;34804;49.214;12.276;2023-09-07T05:50:52;11.85;;;6.82;;
48993;SDS011;34804;49.214;12.276;2023-09-07T05:53:19;11.70;;;6.30;;
48993;SDS011;34804;49.214;12.276;2023-09-07T05:55:50;12.60;;;7.57;;
48993;SDS011;34804;49.214;12.276;2023-09-07T05:58:18;15.90;;;10.05;;
48993;SDS011;34804;49.214;12.276;2023-09-07T06:00:45;18.80;;;10.35;;
48993;SDS011;34804;49.214;12.276;2023-09-07T06:03:12;21.13;;;10.30;;
48993;SDS011;34804;49.214;12.276;2023-09-07T06:05:39;13.77;;;9.52;;
48993;SDS011;34804;49.214;12.276;2023-09-07T06:08:06;13.73;;;7.88;;
48993;SDS011;34804;49.214;12.276;2023-09-07T06:10:33;11.07;;;7.07;;
48993;SDS011;34804;49.214;12.276;2023-09-07T06:13:00;12.75;;;6.95;;
48993;SDS011;34804;49.214;12.276;2023-09-07T06:15:29;13.93;;;8.02;;
48993;SDS011;34804;49.214;12.276;2023-09-07T06:17:57;15.70;;;8.18;;
48993;SDS011;34804;49.214;12.276;2023-09-07T06:20:24;13.02;;;8.02;;
48993;SDS011;34804;49.214;12.276;2023-09-07T06:22:51;10.52;;;7.45;;
48993;SDS011;34804;49.214;12.276;2023-09-07T06:25:18;11.25;;;6.97;;
48993;SDS011;34804;49.214;12.276;2023-09-07T06:27:45;13.23;;;7.63;;
48993;SDS011;34804;49.214;12.276;2023-09-07T06:30:12;13.60;;;7.72;;
48993;SDS011;34804;49.214;12.276;2023-09-07T06:32:39;12.30;;;7.93;;
48993;SDS011;34804;49.214;12.276;2023-09-07T06:35:07;10.70;;;7.05;;
48993;SDS011;34804;49.214;12.276;2023-09-07T06:37:34;10.52;;;6.40;;
48993;SDS011;34804;49.214;12.276;2023-09-07T06:40:02;10.13;;;6.60;;
48993;SDS011;34804;49.214;12.276;2023-09-07T06:42:30;9.23;;;6.97;;
48993;SDS011;34804;49.214;12.276;2023-09-07T06:44:57;10.95;;;6.72;;
48993;SDS011;34804;49.214;12.276;2023-09-07T06:47:24;10.60;;;7.10;;
48993;SDS011;34804;49.214;12.276;2023-09-07T06:49:51;11.52;;;7.47;;
48993;SDS011;34804;49.214;12.276;2023-09-07T06:52:17;11.05;;;7.43;;
48993;SDS011;34804;49.214;12.276;2023-09-07T06:54:44;9.98;;;6.32;;
48993;SDS011;34804;49.214;12.276;2023-09-07T06:57:11;9.88;;;6.25;;
48993;SDS011;34804;49.214;12.276;2023-09-07T06:59:38;10.80;;;6.55;;
48993;SDS011;34804;49.214;12.276;2023-09-07T07:02:05;12.23;;;8.20;;
48993;SDS011;34804;49.214;12.276;2023-09-07T07:04:32;9.55;;;6.72;;
48993;SDS011;34804;49.214;12.276;2023-09-07T07:06:59;12.30;;;8.13;;
48993;SDS011;34804;49.214;12.276;2023-09-07T07:09:27;11.23;;;8.18;;
48993;SDS011;34804;49.214;12.276;2023-09-07T07:11:56;12.18;;;7.78;;
48993;SDS011;34804;49.214;12.276;2023-09-07T07:14:24;10.02;;;6.70;;
48993;SDS011;34804;49.214;12.276;2023-09-07T07:16:50;10.25;;;6.75;;
48993;SDS011;34804;49.214;12.276;2023-09-07T07:19:17;13.02;;;6.97;;
48993;SDS011;34804;49.214;12.276;2023-09-07T07:21:45;8.95;;;6.50;;
48993;SDS011;34804;49.214;12.276;2023-09-07T07:24:11;8.77;;;6.50;;
48993;SDS011;34804;49.214;12.276;2023-09-07T07:26:38;10.75;;;6.80;;
48993;SDS011;34804;49.214;12.276;2023-09-07T07:29:06;7.90;;;5.55;;
48993;SDS011;34804;49.214;12.276;2023-09-07T07:31:32;9.43;;;5.60;;
48993;SDS011;34804;49.214;12.276;2023-09-07T07:33:59;8.70;;;5.53;;
48993;SDS011;34804;49.214;12.276;2023-09-07T07:36:27;10.13;;;6.22;;
48993;SDS011;34804;49.214;12.276;2023-09-07T07:38:55;12.25;;;6.38;;
48993;SDS011;34804;49.214;12.276;2023-09-07T07:41:22;9.75;;;5.50;;
48993;SDS011;34804;49.214;12.276;2023-09-07T07:43:49;8.95;;;6.15;;
48993;SDS011;34804;49.214;12.276;2023-09-07T07:46:16;10.48;;;5.43;;
48993;SDS011;34804;49.214;12.276;2023-09-07T07:48:43;7.72;;;4.95;;
48993;SDS011;34804;49.214;12.276;2023-09-07T07:51:10;7.43;;;5.03;;
48993;SDS011;34804;49.214;12.276;2023-09-07T07:53:38;7.53;;;4.90;;
48993;SDS011;34804;49.214;12.276;2023-09-07T07:56:04;8.43;;;4.43;;
48993;SDS011;34804;49.214;12.276;2023-09-07T07:58:32;8.63;;;5.25;;
48993;SDS011;34804;49.214;12.276;2023-09-07T08:00:58;6.80;;;4.70;;
48993;SDS011;34804;49.214;12.276;2023-09-07T08:03:25;8.15;;;4.82;;
48993;SDS011;34804;49.214;12.276;2023-09-07T08:05:52;7.85;;;4.68;;
48993;SDS011;34804;49.214;12.276;2023-09-07T08:08:19;7.07;;;4.43;;
48993;SDS011;34804;49.214;12.276;2023-09-07T08:10:46;7.85;;;4.60;;
48993;SDS011;34804;49.214;12.276;2023-09-07T08:13:13;6.85;;;4.40;;
48993;SDS011;34804;49.214;12.276;2023-09-07T08:15:40;6.45;;;4.03;;
48993;SDS011;34804;49.214;12.276;2023-09-07T08:18:07;6.75;;;4.13;;
48993;SDS011;34804;49.214;12.276;2023-09-07T08:20:35;8.38;;;4.38;;
48993;SDS011;34804;49.214;12.276;2023-09-07T08:23:03;7.53;;;4.20;;
48993;SDS011;34804;49.214;12.276;2023-09-07T08:25:33;7.55;;;4.43;;
48993;SDS011;34804;49.214;12.276;2023-09-07T08:28:00;7.78;;;3.63;;
48993;SDS011;34804;49.214;12.276;2023-09-07T08:30:32;6.68;;;4.10;;
48993;SDS011;34804;49.214;12.276;2023-09-07T08:33:00;7.30;;;4.10;;
48993;SDS011;34804;49.214;12.276;2023-09-07T08:35:28;6.85;;;3.92;;
48993;SDS011;34804;49.214;12.276;2023-09-07T08:37:57;8.68;;;3.97;;
48993;SDS011;34804;49.214;12.276;2023-09-07T08:40:26;7.00;;;4.10;;
48993;SDS011;34804;49.214;12.276;2023-09-07T08:42:54;6.32;;;4.30;;
48993;SDS011;34804;49.214;12.276;2023-09-07T08:45:24;6.30;;;4.10;;
48993;SDS011;34804;49.214;12.276;2023-09-07T08:47:52;7.13;;;4.07;;
48993;SDS011;34804;49.214;12.276;2023-09-07T08:50:21;6.60;;;3.88;;
48993;SDS011;34804;49.214;12.276;2023-09-07T08:52:51;5.68;;;3.88;;
48993;SDS011;34804;49.214;12.276;2023-09-07T08:55:19;6.78;;;3.80;;
48993;SDS011;34804;49.214;12.276;2023-09-07T08:57:47;8.40;;;4.38;;
48993;SDS011;34804;49.214;12.276;2023-09-07T09:00:14;6.47;;;4.00;;
48993;SDS011;34804;49.214;12.276;2023-09-07T09:02:45;7.00;;;4.15;;
48993;SDS011;34804;49.214;12.276;2023-09-07T09:05:22;8.25;;;3.55;;
48993;SDS011;34804;49.214;12.276;2023-09-07T09:08:00;6.40;;;3.83;;
48993;SDS011;34804;49.214;12.276;2023-09-07T09:10:39;9.65;;;3.97;;
48993;SDS011;34804;49.214;12.276;2023-09-07T09:13:07;5.63;;;3.60;;
48993;SDS011;34804;49.214;12.276;2023-09-07T09:15:33;7.22;;;3.38;;
48993;SDS011;34804;49.214;12.276;2023-09-07T09:18:08;7.25;;;3.88;;
48993;SDS011;34804;49.214;12.276;2023-09-07T09:20:38;8.38;;;4.13;;
48993;SDS011;34804;49.214;12.276;2023-09-07T09:23:05;6.00;;;3.47;;
48993;SDS011;34804;49.214;12.276;2023-09-07T09:25:33;6.60;;;4.03;;
48993;SDS011;34804;49.214;12.276;2023-09-07T09:28:00;6.18;;;4.03;;
48993;SDS011;34804;49.214;12.276;2023-09-07T09:30:28;8.75;;;3.60;;
48993;SDS011;34804;49.214;12.276;2023-09-07T09:32:55;7.30;;;3.72;;
48993;SDS011;34804;49.214;12.276;2023-09-07T09:35:22;5.82;;;4.03;;
48993;SDS011;34804;49.214;12.276;2023-09-07T09:37:50;7.75;;;3.72;;
48993;SDS011;34804;49.214;12.276;2023-09-07T09:40:16;5.82;;;3.50;;
48993;SDS011;34804;49.214;12.276;2023-09-07T09:42:45;8.98;;;3.90;;
48993;SDS011;34804;49.214;12.276;2023-09-07T09:45:12;5.93;;;3.50;;
48993;SDS011;34804;49.214;12.276;2023-09-07T09:47:40;6.80;;;3.85;;
48993;SDS011;34804;49.214;12.276;2023-09-07T09:50:08;6.35;;;3.75;;
48993;SDS011;34804;49.214;12.276;2023-09-07T09:52:36;5.68;;;3.60;;
48993;SDS011;34804;49.214;12.276;2023-09-07T09:55:04;6.82;;;3.58;;
48993;SDS011;34804;49.214;12.276;2023-09-07T09:57:34;5.28;;;3.53;;
48993;SDS011;34804;49.214;12.276;2023-09-07T10:00:02;6.10;;;3.47;;
48993;SDS011;34804;49.214;12.276;2023-09-07T10:05:31;6.82;;;3.78;;
48993;SDS011;34804;49.214;12.276;2023-09-07T10:08:03;5.13;;;3.35;;
48993;SDS011;34804;49.214;12.276;2023-09-07T10:10:35;8.45;;;4.22;;
48993;SDS011;34804;49.214;12.276;2023-09-07T10:13:03;6.90;;;3.80;;
48993;SDS011;34804;49.214;12.276;2023-09-07T10:15:30;7.30;;;3.60;;
48993;SDS011;34804;49.214;12.276;2023-09-07T10:18:02;9.55;;;3.60;;
48993;SDS011;34804;49.214;12.276;2023-09-07T10:20:47;6.05;;;3.60;;
48993;SDS011;34804;49.214;12.276;2023-09-07T10:23:19;8.10;;;3.40;;
48993;SDS011;34804;49.214;12.276;2023-09-07T10:25:50;5.20;;;3.20;;
48993;SDS011;34804;49.214;12.276;2023-09-07T10:28:18;5.90;;;3.30;;
48993;SDS011;34804;49.214;12.276;2023-09-07T10:33:30;7.93;;;3.83;;
48993;SDS011;34804;49.214;12.276;2023-09-07T10:35:58;6.25;;;3.60;;
48993;SDS011;34804;49.214;12.276;2023-09-07T10:38:25;6.50;;;3.40;;
48993;SDS011;34804;49.214;12.276;2023-09-07T10:40:56;5.85;;;3.65;;
48993;SDS011;34804;49.214;12.276;2023-09-07T10:43:25;5.63;;;3.80;;
48993;SDS011;34804;49.214;12.276;2023-09-07T10:45:53;6.10;;;3.88;;
48993;SDS011;34804;49.214;12.276;2023-09-07T10:48:22;5.32;;;3.25;;
48993;SDS011;34804;49.214;12.276;2023-09-07T10:50:51;5.82;;;3.30;;
48993;SDS011;34804;49.214;12.276;2023-09-07T10:53:26;8.23;;;3.63;;
48993;SDS011;34804;49.214;12.276;2023-09-07T10:55:54;6.43;;;3.80;;
48993;SDS011;34804;49.214;12.276;2023-09-07T10:58:24;6.07;;;3.40;;
48993;SDS011;34804;49.214;12.276;2023-09-07T11:00:56;5.50;;;3.25;;
48993;SDS011;34804;49.214;12.276;2023-09-07T11:03:26;6.85;;;3.75;;
48993;SDS011;34804;49.214;12.276;2023-09-07T11:05:56;5.65;;;3.30;;
48993;SDS011;34804;49.214;12.276;2023-09-07T11:08:24;6.35;;;3.08;;
48993;SDS011;34804;49.214;12.276;2023-09-07T11:10:51;6.22;;;3.50;;
48993;SDS011;34804;49.214;12.276;2023-09-07T11:13:18;7.90;;;3.20;;
48993;SDS011;34804;49.214;12.276;2023-09-07T11:15:45;7.38;;;3.40;;
48993;SDS011;34804;49.214;12.276;2023-09-07T11:18:12;6.72;;;3.72;;
48993;SDS011;34804;49.214;12.276;2023-09-07T11:20:39;7.40;;;3.55;;
48993;SDS011;34804;49.214;12.276;2023-09-07T11:23:06;6.20;;;3.50;;
48993;SDS011;34804;49.214;12.276;2023-09-07T11:25:37;8.25;;;4.00;;
48993;SDS011;34804;49.214;12.276;2023-09-07T11:28:05;5.47;;;3.50;;
48993;SDS011;34804;49.214;12.276;2023-09-07T11:30:33;5.50;;;3.33;;
48993;SDS011;34804;49.214;12.276;2023-09-07T11:33:04;7.63;;;3.38;;
48993;SDS011;34804;49.214;12.276;2023-09-07T11:35:35;5.68;;;3.13;;
48993;SDS011;34804;49.214;12.276;2023-09-07T11:38:03;6.18;;;3.25;;
48993;SDS011;34804;49.214;12.276;2023-09-07T11:40:33;6.22;;;3.60;;
48993;SDS011;34804;49.214;12.276;2023-09-07T11:43:01;6.47;;;3.20;;
48993;SDS011;34804;49.214;12.276;2023-09-07T11:45:28;5.40;;;3.10;;
48993;SDS011;34804;49.214;12.276;2023-09-07T11:47:55;6.35;;;3.65;;
48993;SDS011;34804;49.214;12.276;2023-09-07T11:50:22;6.55;;;3.40;;
48993;SDS011;34804;49.214;12.276;2023-09-07T11:52:51;5.07;;;3.10;;
48993;SDS011;34804;49.214;12.276;2023-09-07T11:55:18;5.43;;;3.42;;
48993;SDS011;34804;49.214;12.276;2023-09-07T11:57:45;7.40;;;3.17;;
48993;SDS011;34804;49.214;12.276;2023-09-07T12:00:12;6.30;;;3.10;;
48993;SDS011;34804;49.214;12.276;2023-09-07T12:02:41;6.47;;;3.30;;
48993;SDS011;34804;49.214;12.276;2023-09-07T12:05:08;5.43;;;3.03;;
48993;SDS011;34804;49.214;12.276;2023-09-07T12:07:36;5.28;;;3.50;;
48993;SDS011;34804;49.214;12.276;2023-09-07T12:10:03;5.82;;;3.95;;
48993;SDS011;34804;49.214;12.276;2023-09-07T12:12:31;5.72;;;3.30;;
48993;SDS011;34804;49.214;12.276;2023-09-07T12:14:57;5.18;;;3.45;;
48993;SDS011;34804;49.214;12.276;2023-09-07T12:17:25;5.88;;;3.30;;
48993;SDS011;34804;49.214;12.276;2023-09-07T12:19:53;5.35;;;3.10;;
48993;SDS011;34804;49.214;12.276;2023-09-07T12:22:19;6.53;;;3.55;;
48993;SDS011;34804;49.214;12.276;2023-09-07T12:24:46;9.15;;;3.55;;
48993;SDS011;34804;49.214;12.276;2023-09-07T12:27:28;6.82;;;3.30;;
48993;SDS011;34804;49.214;12.276;2023-09-07T12:30:05;5.93;;;3.15;;
48993;SDS011;34804;49.214;12.276;2023-09-07T12:35:06;5.53;;;3.08;;
48993;SDS011;34804;49.214;12.276;2023-09-07T12:37:35;4.97;;;3.30;;
48993;SDS011;34804;49.214;12.276;2023-09-07T12:40:05;8.35;;;3.30;;
48993;SDS011;34804;49.214;12.276;2023-09-07T12:42:41;6.20;;;3.35;;
48993;SDS011;34804;49.214;12.276;2023-09-07T12:45:09;6.70;;;3.10;;
48993;SDS011;34804;49.214;12.276;2023-09-07T12:47:41;7.45;;;3.20;;
48993;SDS011;34804;49.214;12.276;2023-09-07T12:50:08;4.60;;;3.10;;
48993;SDS011;34804;49.214;12.276;2023-09-07T12:52:35;5.93;;;3.13;;
48993;SDS011;34804;49.214;12.276;2023-09-07T12:55:05;5.60;;;3.10;;
48993;SDS011;34804;49.214;12.276;2023-09-07T12:57:34;9.50;;;3.10;;
48993;SDS011;34804;49.214;12.276;2023-09-07T13:00:03;4.63;;;3.00;;
48993;SDS011;34804;49.214;12.276;2023-09-07T13:02:31;6.15;;;3.40;;
48993;SDS011;34804;49.214;12.276;2023-09-07T13:04:58;5.40;;;3.67;;
48993;SDS011;34804;49.214;12.276;2023-09-07T13:07:25;5.43;;;3.03;;
48993;SDS011;34804;49.214;12.276;2023-09-07T13:09:51;5.20;;;3.17;;
48993;SDS011;34804;49.214;12.276;2023-09-07T13:12:19;5.47;;;2.97;;
48993;SDS011;34804;49.214;12.276;2023-09-07T13:14:46;5.88;;;3.25;;
48993;SDS011;34804;49.214;12.276;2023-09-07T13:17:13;6.00;;;3.33;;
48993;SDS011;34804;49.214;12.276;2023-09-07T13:19:40;5.47;;;2.85;;
48993;SDS011;34804;49.214;12.276;2023-09-07T13:22:08;6.05;;;3.20;;
48993;SDS011;34804;49.214;12.276;2023-09-07T13:24:35;5.38;;;2.90;;
48993;SDS011;34804;49.214;12.276;2023-09-07T13:27:02;7.80;;;3.08;;
48993;SDS011;34804;49.214;12.276;2023-09-07T13:29:30;7.38;;;3.30;;
48993;SDS011;34804;49.214;12.276;2023-09-07T13:31:58;7.60;;;3.22;;
48993;SDS011;34804;49.214;12.276;2023-09-07T13:34:25;5.97;;;2.78;;
48993;SDS011;34804;49.214;12.276;2023-09-07T13:36:52;6.57;;;3.10;;
48993;SDS011;34804;49.214;12.276;2023-09-07T13:39:20;4.97;;;2.80;;
48993;SDS011;34804;49.214;12.276;2023-09-07T13:41:47;5.30;;;2.78;;
48993;SDS011;34804;49.214;12.276;2023-09-07T13:44:15;7.10;;;2.95;;
48993;SDS011;34804;49.214;12.276;2023-09-07T13:46:42;6.03;;;3.00;;
48993;SDS011;34804;49.214;12.276;2023-09-07T13:49:11;6.43;;;2.90;;
48993;SDS011;34804;49.214;12.276;2023-09-07T13:51:42;5.55;;;2.78;;
48993;SDS011;34804;49.214;12.276;2023-09-07T13:54:09;5.43;;;2.70;;
48993;SDS011;34804;49.214;12.276;2023-09-07T13:56:36;4.50;;;2.78;;
48993;SDS011;34804;49.214;12.276;2023-09-07T13:59:03;7.15;;;2.90;;
48993;SDS011;34804;49.214;12.276;2023-09-07T14:01:30;5.75;;;3.00;;
48993;SDS011;34804;49.214;12.276;2023-09-07T14:03:58;4.85;;;2.80;;
48993;SDS011;34804;49.214;12.276;2023-09-07T14:06:25;6.15;;;2.60;;
48993;SDS011;34804;49.214;12.276;2023-09-07T14:08:53;4.90;;;2.50;;
48993;SDS011;34804;49.214;12.276;2023-09-07T14:11:19;5.05;;;2.65;;
48993;SDS011;34804;49.214;12.276;2023-09-07T14:13:47;4.80;;;2.53;;
48993;SDS011;34804;49.214;12.276;2023-09-07T14:16:16;5.82;;;2.83;;
48993;SDS011;34804;49.214;12.276;2023-09-07T14:18:44;8.00;;;2.60;;
48993;SDS011;34804;49.214;12.276;2023-09-07T14:21:12;5.10;;;2.58;;
48993;SDS011;34804;49.214;12.276;2023-09-07T14:23:43;4.75;;;2.65;;
48993;SDS011;34804;49.214;12.276;2023-09-07T14:26:10;6.30;;;3.20;;
48993;SDS011;34804;49.214;12.276;2023-09-07T14:28:37;6.32;;;2.95;;
48993;SDS011;34804;49.214;12.276;2023-09-07T14:31:05;5.32;;;2.80;;
48993;SDS011;34804;49.214;12.276;2023-09-07T14:33:34;5.75;;;2.95;;
48993;SDS011;34804;49.214;12.276;2023-09-07T14:36:05;4.50;;;2.47;;
48993;SDS011;34804;49.214;12.276;2023-09-07T14:38:33;6.50;;;3.03;;
48993;SDS011;34804;49.214;12.276;2023-09-07T14:41:08;5.43;;;3.08;;
48993;SDS011;34804;49.214;12.276;2023-09-07T14:43:45;5.10;;;2.78;;